Time;durP1;ratioP1;P1;durP2;ratioP2;P2;SDS_P1;SDS_P2;PMS_P1;PMS_P2;Temp;Humidity;BMP_temperature;BMP_pressure;BME280_temperature;BME280_humidity;BME280_pressure;Samples;Min_cycle;Max_cycle;Signal;HPM_P1;HPM_P2
2024/02/06 06:02:37;;;;;;;41.80;14.30;;;;;;;;;;4997949;23;20586;-73
2024/02/06 06:05:03;;;;;;;28.97;13.43;;;;;;;;;;4959315;29;20435;-73
2024/02/06 06:07:29;;;;;;;36.70;13.40;;;;;;;;;;4957010;29;20489;-72
2024/02/06 06:09:55;;;;;;;33.53;13.60;;;;;;;;;;4958621;29;20912;-73
2024/02/06 06:12:21;;;;;;;36.00;14.70;;;;;;;;;;4956111;28;20858;-73
2024/02/06 06:14:46;;;;;;;26.43;12.87;;;;;;;;;;4956477;29;20920;-72
2024/02/06 06:17:12;;;;;;;27.83;12.00;;;;;;;;;;4964008;29;20424;-73
2024/02/06 06:19:38;;;;;;;25.40;10.43;;;;;;;;;;4964196;29;20468;-74
2024/02/06 06:22:07;;;;;;;21.87;10.43;;;;;;;;;;4965773;28;20439;-73
2024/02/06 06:24:33;;;;;;;24.17;10.80;;;;;;;;;;4961801;28;20488;-73
2024/02/06 06:26:59;;;;;;;19.70;8.93;;;;;;;;;;4958851;29;20417;-73
2024/02/06 06:29:25;;;;;;;11.73;6.67;;;;;;;;;;4956112;29;20427;-73
2024/02/06 06:31:51;;;;;;;10.77;6.70;;;;;;;;;;4955007;28;20436;-73
2024/02/06 06:34:17;;;;;;;13.70;6.60;;;;;;;;;;4952982;28;20459;-73
2024/02/06 06:36:43;;;;;;;13.53;7.30;;;;;;;;;;4955112;29;20924;-72
2024/02/06 06:39:11;;;;;;;11.23;5.97;;;;;;;;;;4955209;29;20792;-72
2024/02/06 06:41:37;;;;;;;14.50;6.90;;;;;;;;;;4954963;28;20468;-72
2024/02/06 06:44:03;;;;;;;14.60;6.30;;;;;;;;;;4954608;29;20409;-72
2024/02/06 06:46:29;;;;;;;25.43;6.37;;;;;;;;;;4955081;29;20787;-72
2024/02/06 06:48:55;;;;;;;10.77;5.90;;;;;;;;;;4953225;29;20421;-72
2024/02/06 06:51:21;;;;;;;15.30;6.50;;;;;;;;;;4953673;28;20471;-72
2024/02/06 06:53:47;;;;;;;10.00;5.37;;;;;;;;;;4955005;29;20422;-73
2024/02/06 06:56:17;;;;;;;15.07;6.07;;;;;;;;;;4954904;29;20413;-73
2024/02/06 06:58:43;;;;;;;9.63;5.60;;;;;;;;;;4954941;28;21000;-72
2024/02/06 07:01:09;;;;;;;10.20;6.00;;;;;;;;;;4954287;28;20568;-73
2024/02/06 07:03:35;;;;;;;9.40;5.50;;;;;;;;;;4954850;28;20781;-72
2024/02/06 07:06:01;;;;;;;12.30;5.60;;;;;;;;;;4954605;29;20413;-73
2024/02/06 07:08:27;;;;;;;11.10;5.23;;;;;;;;;;4954748;29;20930;-73
2024/02/06 07:10:53;;;;;;;12.73;5.60;;;;;;;;;;4954226;28;20432;-72
2024/02/06 07:13:19;;;;;;;11.17;5.57;;;;;;;;;;4954204;29;20932;-74
2024/02/06 07:15:45;;;;;;;13.17;6.40;;;;;;;;;;4954285;29;20413;-73
2024/02/06 07:18:11;;;;;;;13.30;6.10;;;;;;;;;;4952883;29;20432;-73
2024/02/06 07:20:37;;;;;;;13.13;5.70;;;;;;;;;;4953946;28;20460;-74
2024/02/06 07:23:03;;;;;;;11.80;5.90;;;;;;;;;;4954006;29;20420;-73
2024/02/06 07:25:29;;;;;;;13.60;5.90;;;;;;;;;;4954131;29;20415;-74
2024/02/06 07:27:55;;;;;;;13.52;6.35;;;;;;;;;;4951779;29;20795;-76
2024/02/06 07:30:21;;;;;;;10.87;5.90;;;;;;;;;;4955528;28;20177;-73
2024/02/06 07:32:47;;;;;;;15.20;6.27;;;;;;;;;;4955247;29;20503;-75
2024/02/06 07:35:13;;;;;;;12.70;5.50;;;;;;;;;;4954749;29;20444;-74
2024/02/06 07:37:39;;;;;;;11.30;5.87;;;;;;;;;;4953705;29;20424;-74
2024/02/06 07:40:08;;;;;;;10.83;4.80;;;;;;;;;;4956571;29;20563;-74
2024/02/06 07:42:34;;;;;;;13.57;5.70;;;;;;;;;;4959063;29;20417;-73
2024/02/06 07:45:00;;;;;;;13.67;6.93;;;;;;;;;;4955541;29;20504;-73
2024/02/06 07:47:26;;;;;;;12.90;6.03;;;;;;;;;;4954850;28;20467;-74
2024/02/06 07:49:52;;;;;;;10.80;5.17;;;;;;;;;;4954540;29;20436;-74
2024/02/06 07:52:18;;;;;;;20.23;6.23;;;;;;;;;;4955498;28;20645;-74
2024/02/06 07:54:44;;;;;;;10.53;5.30;;;;;;;;;;4958947;29;20424;-73
2024/02/06 07:57:10;;;;;;;15.50;5.80;;;;;;;;;;4957913;29;20409;-74
2024/02/06 07:59:36;;;;;;;11.50;5.70;;;;;;;;;;4954104;28;20460;-74
2024/02/06 08:02:02;;;;;;;9.83;5.53;;;;;;;;;;4954579;28;20483;-74
2024/02/06 08:04:28;;;;;;;9.40;5.13;;;;;;;;;;4952530;29;20432;-74
2024/02/06 08:06:54;;;;;;;8.73;4.50;;;;;;;;;;4952508;29;20412;-74
2024/02/06 08:09:20;;;;;;;8.93;4.77;;;;;;;;;;4953442;29;20438;-74
2024/02/06 08:11:46;;;;;;;8.90;5.23;;;;;;;;;;4952928;28;20809;-74
2024/02/06 08:14:13;;;;;;;8.80;4.87;;;;;;;;;;4953556;28;20420;-74
2024/02/06 08:16:39;;;;;;;13.00;5.20;;;;;;;;;;4953337;29;20495;-74
2024/02/06 08:19:05;;;;;;;13.60;4.50;;;;;;;;;;4953203;28;20405;-73
2024/02/06 08:21:31;;;;;;;7.97;4.73;;;;;;;;;;4953247;29;20483;-73
2024/02/06 08:23:58;;;;;;;11.90;5.60;;;;;;;;;;4953439;29;20916;-74
2024/02/06 08:26:24;;;;;;;12.70;5.90;;;;;;;;;;4953494;28;20409;-74
2024/02/06 08:28:50;;;;;;;8.93;4.83;;;;;;;;;;4953145;29;20409;-73
2024/02/06 08:31:16;;;;;;;11.77;4.37;;;;;;;;;;4951863;28;20448;-72
2024/02/06 08:33:44;;;;;;;10.13;5.50;;;;;;;;;;4952063;28;20429;-75
2024/02/06 08:36:13;;;;;;;11.80;4.93;;;;;;;;;;4953361;28;20847;-73
2024/02/06 08:38:39;;;;;;;9.20;5.07;;;;;;;;;;4953231;28;20938;-72
2024/02/06 08:41:05;;;;;;;11.67;4.93;;;;;;;;;;4953237;28;20473;-73
2024/02/06 08:43:31;;;;;;;10.77;5.97;;;;;;;;;;4953275;29;20416;-73
2024/02/06 08:45:57;;;;;;;10.60;5.20;;;;;;;;;;4953295;29;20939;-75
2024/02/06 08:48:23;;;;;;;11.20;5.13;;;;;;;;;;4953211;29;20409;-74
2024/02/06 08:50:50;;;;;;;8.47;4.60;;;;;;;;;;4951473;28;20480;-74
2024/02/06 08:53:16;;;;;;;6.77;4.00;;;;;;;;;;4953040;28;20428;-73
2024/02/06 08:55:43;;;;;;;12.30;5.60;;;;;;;;;;4953103;29;20405;-74
2024/02/06 08:58:10;;;;;;;9.17;4.20;;;;;;;;;;4954355;28;20421;-73
2024/02/06 09:00:36;;;;;;;7.90;4.43;;;;;;;;;;4956579;28;20481;-73
2024/02/06 09:03:02;;;;;;;10.00;4.10;;;;;;;;;;4955441;29;20440;-72
2024/02/06 09:05:28;;;;;;;6.40;3.50;;;;;;;;;;4955304;29;20423;-74
2024/02/06 09:07:54;;;;;;;9.47;3.47;;;;;;;;;;4955262;29;20943;-73
2024/02/06 09:10:20;;;;;;;9.07;4.10;;;;;;;;;;4956293;28;20739;-72
2024/02/06 09:12:47;;;;;;;9.00;4.60;;;;;;;;;;4956447;29;20428;-72
2024/02/06 09:15:13;;;;;;;12.37;4.67;;;;;;;;;;4954737;29;20436;-74
2024/02/06 09:17:39;;;;;;;12.33;4.53;;;;;;;;;;4956081;29;20417;-74
2024/02/06 09:20:09;;;;;;;10.13;4.40;;;;;;;;;;4956292;29;20567;-77
2024/02/06 09:22:34;;;;;;;10.13;4.63;;;;;;;;;;4956421;28;20420;-76
2024/02/06 09:25:01;;;;;;;10.27;4.87;;;;;;;;;;4956236;28;20425;-75
2024/02/06 09:27:26;;;;;;;7.80;3.53;;;;;;;;;;4955489;29;20452;-77
2024/02/06 09:29:53;;;;;;;10.43;4.70;;;;;;;;;;4964923;29;20464;-76
2024/02/06 09:32:19;;;;;;;9.47;3.17;;;;;;;;;;4964687;28;20452;-75
2024/02/06 09:34:45;;;;;;;5.97;3.67;;;;;;;;;;4965057;29;20516;-75
2024/02/06 09:37:11;;;;;;;7.00;3.87;;;;;;;;;;4956959;28;20512;-76
2024/02/06 09:39:37;;;;;;;11.10;4.30;;;;;;;;;;4955934;29;20711;-76
2024/02/06 09:42:03;;;;;;;6.60;4.23;;;;;;;;;;4954898;28;20441;-75
2024/02/06 09:44:30;;;;;;;12.00;3.90;;;;;;;;;;4955764;28;20417;-76
2024/02/06 09:46:58;;;;;;;9.40;3.60;;;;;;;;;;4954527;29;20460;-74
2024/02/06 09:49:24;;;;;;;6.60;3.80;;;;;;;;;;4955305;28;20793;-74
2024/02/06 09:51:50;;;;;;;7.63;3.50;;;;;;;;;;4955366;28;20435;-74
2024/02/06 09:54:17;;;;;;;8.73;3.90;;;;;;;;;;4954175;29;20436;-75
2024/02/06 09:56:45;;;;;;;13.33;3.60;;;;;;;;;;4955317;29;20424;-75
2024/02/06 09:59:11;;;;;;;5.53;3.37;;;;;;;;;;4955310;28;20728;-73
2024/02/06 10:01:41;;;;;;;5.50;3.33;;;;;;;;;;4955209;28;20472;-75
2024/02/06 10:04:09;;;;;;;7.77;4.10;;;;;;;;;;4955580;29;20445;-74
2024/02/06 10:06:36;;;;;;;6.73;3.07;;;;;;;;;;4955255;29;20413;-74
2024/02/06 10:09:03;;;;;;;6.10;3.63;;;;;;;;;;4954462;28;20445;-74
2024/02/06 10:11:33;;;;;;;6.77;3.40;;;;;;;;;;4954948;28;20445;-75
2024/02/06 10:13:59;;;;;;;6.97;3.93;;;;;;;;;;4953869;29;20496;-75
2024/02/06 10:16:25;;;;;;;11.77;4.07;;;;;;;;;;4955021;29;20416;-76
2024/02/06 10:18:52;;;;;;;8.50;3.73;;;;;;;;;;4954932;28;20417;-74
2024/02/06 10:21:18;;;;;;;6.20;3.77;;;;;;;;;;4955115;28;20468;-73
2024/02/06 10:23:44;;;;;;;5.00;3.10;;;;;;;;;;4954944;29;20420;-72
2024/02/06 10:26:10;;;;;;;5.30;2.83;;;;;;;;;;4953810;29;20429;-75
2024/02/06 10:28:39;;;;;;;6.73;2.87;;;;;;;;;;4954417;28;20888;-76
2024/02/06 10:31:11;;;;;;;4.10;3.33;;;;;;;;;;4954815;28;20439;-76
2024/02/06 10:33:40;;;;;;;13.23;3.93;;;;;;;;;;4954986;29;20936;-75
2024/02/06 10:36:06;;;;;;;13.07;3.73;;;;;;;;;;4954881;29;20475;-75
2024/02/06 10:38:32;;;;;;;7.03;3.80;;;;;;;;;;4954628;29;20421;-75
2024/02/06 10:40:59;;;;;;;9.10;3.30;;;;;;;;;;4954409;28;20472;-72
2024/02/06 10:43:29;;;;;;;6.37;2.70;;;;;;;;;;4951052;29;20421;-70
2024/02/06 10:45:58;;;;;;;9.03;3.53;;;;;;;;;;4946400;28;20504;-73
2024/02/06 10:48:24;;;;;;;5.80;2.10;;;;;;;;;;4944624;29;21098;-73
2024/02/06 10:50:58;;;;;;;4.80;2.40;;;;;;;;;;4948502;29;20448;-72
2024/02/06 10:53:24;;;;;;;2.90;2.20;;;;;;;;;;4953988;28;20432;-73
2024/02/06 10:55:51;;;;;;;5.27;2.77;;;;;;;;;;4953965;29;20421;-74
2024/02/06 10:58:19;;;;;;;3.90;2.20;;;;;;;;;;4954156;28;20515;-73
2024/02/06 11:00:45;;;;;;;5.50;2.40;;;;;;;;;;4953941;29;20817;-72
2024/02/06 11:03:14;;;;;;;3.10;2.27;;;;;;;;;;4944095;29;20421;-73
2024/02/06 11:05:48;;;;;;;5.10;2.23;;;;;;;;;;4950938;29;20419;-76
2024/02/06 11:08:15;;;;;;;7.80;2.70;;;;;;;;;;4954231;28;20447;-75
2024/02/06 11:10:43;;;;;;;5.00;1.80;;;;;;;;;;4951721;29;20441;-74
2024/02/06 11:13:14;;;;;;;4.60;2.80;;;;;;;;;;4953652;28;20432;-74
2024/02/06 11:15:40;;;;;;;7.20;2.50;;;;;;;;;;4941297;29;20438;-74
2024/02/06 11:18:08;;;;;;;12.17;2.77;;;;;;;;;;4941823;29;20481;-73
2024/02/06 11:20:35;;;;;;;2.73;2.13;;;;;;;;;;4951969;28;20481;-74
2024/02/06 11:23:01;;;;;;;3.87;2.60;;;;;;;;;;4944074;29;20425;-74
2024/02/06 11:25:29;;;;;;;4.83;2.40;;;;;;;;;;4954113;28;20412;-74
2024/02/06 11:27:55;;;;;;;2.70;2.00;;;;;;;;;;4951677;29;20471;-74
2024/02/06 11:30:22;;;;;;;7.90;1.90;;;;;;;;;;4953272;28;20429;-74
2024/02/06 11:32:48;;;;;;;5.00;2.03;;;;;;;;;;4953895;28;20913;-74
2024/02/06 11:35:15;;;;;;;6.13;2.33;;;;;;;;;;4953329;28;20428;-74
2024/02/06 11:37:41;;;;;;;3.33;1.90;;;;;;;;;;4952753;29;20416;-74
2024/02/06 11:40:10;;;;;;;2.80;2.00;;;;;;;;;;4952617;29;20560;-73
2024/02/06 11:42:37;;;;;;;3.60;1.90;;;;;;;;;;4952773;29;20427;-73
2024/02/06 11:45:04;;;;;;;12.50;2.97;;;;;;;;;;4954055;28;20416;-73
2024/02/06 11:47:30;;;;;;;5.00;1.90;;;;;;;;;;4953998;28;20846;-74
2024/02/06 11:50:05;;;;;;;3.80;2.70;;;;;;;;;;4953679;28;20420;-75
2024/02/06 11:52:31;;;;;;;3.90;2.03;;;;;;;;;;4947361;28;20509;-75
2024/02/06 11:54:57;;;;;;;4.60;2.33;;;;;;;;;;4933427;29;21090;-74
2024/02/06 11:57:23;;;;;;;6.73;2.13;;;;;;;;;;4936244;29;20425;-74
2024/02/06 11:59:49;;;;;;;4.53;2.60;;;;;;;;;;4949833;28;20539;-74
2024/02/06 12:02:17;;;;;;;10.50;2.60;;;;;;;;;;4953344;28;20483;-73
2024/02/06 12:04:43;;;;;;;6.17;2.90;;;;;;;;;;4943042;28;20968;-74
2024/02/06 12:07:09;;;;;;;7.73;2.30;;;;;;;;;;4941441;29;20449;-75
2024/02/06 12:09:41;;;;;;;11.07;2.80;;;;;;;;;;4953311;28;20423;-75
2024/02/06 12:12:12;;;;;;;6.07;2.03;;;;;;;;;;4952233;29;20425;-75
2024/02/06 12:14:39;;;;;;;3.33;2.00;;;;;;;;;;4953042;28;20424;-75
2024/02/06 12:17:05;;;;;;;7.73;1.57;;;;;;;;;;4953412;28;20409;-75
2024/02/06 12:19:31;;;;;;;7.40;2.33;;;;;;;;;;4935126;28;20426;-74
2024/02/06 12:22:15;;;;;;;12.03;2.27;;;;;;;;;;4945866;29;20448;-73
2024/02/06 12:24:41;;;;;;;2.60;1.70;;;;;;;;;;4968727;23;20515;-77
2024/02/06 12:27:08;;;;;;;6.63;2.27;;;;;;;;;;4951606;28;20903;-73
2024/02/06 12:29:38;;;;;;;5.70;2.23;;;;;;;;;;4954894;28;20503;-73
2024/02/06 12:32:05;;;;;;;7.13;2.30;;;;;;;;;;4954870;28;20823;-75
2024/02/06 12:34:32;;;;;;;4.10;2.53;;;;;;;;;;4958370;29;20421;-78
2024/02/06 12:36:59;;;;;;;7.70;2.33;;;;;;;;;;4962126;29;20512;-76
2024/02/06 12:39:25;;;;;;;21.90;2.80;;;;;;;;;;4963478;29;20785;-76
2024/02/06 12:42:05;;;;;;;7.30;2.67;;;;;;;;;;4944895;29;21017;-75
2024/02/06 12:44:31;;;;;;;12.53;2.63;;;;;;;;;;4939858;29;20797;-75
2024/02/06 12:46:59;;;;;;;5.80;2.30;;;;;;;;;;4950941;29;20468;-78
2024/02/06 12:49:25;;;;;;;10.40;2.60;;;;;;;;;;4957220;29;20427;-74
2024/02/06 12:51:54;;;;;;;4.50;2.20;;;;;;;;;;4958664;29;20451;-75
2024/02/06 12:54:20;;;;;;;6.20;2.50;;;;;;;;;;4958778;29;20440;-76
2024/02/06 12:56:46;;;;;;;5.87;1.93;;;;;;;;;;4957759;29;20791;-76
2024/02/06 12:59:12;;;;;;;11.10;2.30;;;;;;;;;;4957333;29;20427;-76
2024/02/06 13:01:38;;;;;;;6.20;2.27;;;;;;;;;;4958491;29;20473;-75
2024/02/06 13:04:04;;;;;;;13.60;2.43;;;;;;;;;;4964487;29;20463;-77
2024/02/06 13:06:37;;;;;;;4.50;2.30;;;;;;;;;;4947167;29;20477;-75
2024/02/06 13:09:03;;;;;;;10.80;2.30;;;;;;;;;;4938481;29;20410;-75
2024/02/06 13:11:30;;;;;;;11.50;2.87;;;;;;;;;;4938504;29;20414;-76
2024/02/06 13:13:56;;;;;;;9.83;3.10;;;;;;;;;;4937791;29;20548;-75
2024/02/06 13:16:22;;;;;;;6.77;3.23;;;;;;;;;;4938034;29;20434;-75
2024/02/06 13:19:00;;;;;;;7.37;2.83;;;;;;;;;;4933338;29;20423;-75
2024/02/06 13:21:38;;;;;;;6.90;2.50;;;;;;;;;;4918790;29;20465;-76
2024/02/06 13:24:07;;;;;;;11.80;2.93;;;;;;;;;;4919767;29;20493;-76
2024/02/06 13:26:33;;;;;;;5.10;2.23;;;;;;;;;;4944992;29;20412;-75
2024/02/06 13:28:59;;;;;;;17.30;3.30;;;;;;;;;;4959774;29;20499;-76
2024/02/06 13:31:25;;;;;;;12.17;3.13;;;;;;;;;;4965358;29;20421;-76
2024/02/06 13:33:52;;;;;;;8.80;2.97;;;;;;;;;;4967397;29;20463;-76
2024/02/06 13:36:18;;;;;;;8.60;3.33;;;;;;;;;;4957426;28;20425;-75
2024/02/06 13:38:44;;;;;;;6.27;2.30;;;;;;;;;;4977992;29;20413;-74
2024/02/06 13:41:10;;;;;;;10.00;2.60;;;;;;;;;;4965165;29;20477;-75
2024/02/06 13:43:37;;;;;;;5.33;2.77;;;;;;;;;;4950714;29;20442;-76
2024/02/06 13:46:03;;;;;;;6.50;2.70;;;;;;;;;;4957164;28;20787;-76
2024/02/06 13:48:29;;;;;;;6.30;2.47;;;;;;;;;;4955728;29;20471;-76
2024/02/06 13:50:55;;;;;;;9.30;3.00;;;;;;;;;;4946403;29;20464;-76
2024/02/06 13:53:21;;;;;;;7.73;2.60;;;;;;;;;;4937970;29;20792;-75
2024/02/06 13:55:47;;;;;;;6.30;2.27;;;;;;;;;;4937687;29;20893;-74
2024/02/06 13:58:13;;;;;;;11.73;2.53;;;;;;;;;;4943733;29;20533;-75
2024/02/06 14:00:39;;;;;;;14.33;4.23;;;;;;;;;;4954224;29;20467;-74
2024/02/06 14:03:05;;;;;;;12.03;3.00;;;;;;;;;;4948094;29;20914;-76
2024/02/06 14:05:33;;;;;;;5.87;2.00;;;;;;;;;;4937442;29;20428;-76
2024/02/06 14:07:59;;;;;;;5.57;2.20;;;;;;;;;;4937671;29;20417;-76
2024/02/06 14:10:25;;;;;;;6.57;2.87;;;;;;;;;;4938071;29;20424;-76
2024/02/06 14:12:51;;;;;;;7.70;2.30;;;;;;;;;;4938787;29;20422;-75
2024/02/06 14:15:18;;;;;;;8.77;2.43;;;;;;;;;;4942160;29;20488;-74
2024/02/06 14:17:45;;;;;;;7.63;3.03;;;;;;;;;;4953563;29;20424;-76
2024/02/06 14:20:11;;;;;;;15.57;3.93;;;;;;;;;;4938587;29;20569;-76
2024/02/06 14:22:37;;;;;;;9.27;3.00;;;;;;;;;;4937664;29;20776;-75
2024/02/06 14:25:04;;;;;;;9.83;2.80;;;;;;;;;;4937656;29;20464;-73
2024/02/06 14:27:30;;;;;;;10.50;2.70;;;;;;;;;;4937500;29;20421;-74
2024/02/06 14:29:56;;;;;;;7.40;2.40;;;;;;;;;;4938979;29;20419;-74
2024/02/06 14:32:22;;;;;;;8.13;2.70;;;;;;;;;;4939864;29;20846;-76
2024/02/06 14:34:49;;;;;;;5.97;2.33;;;;;;;;;;4936909;29;20976;-76
2024/02/06 14:37:15;;;;;;;6.67;2.53;;;;;;;;;;4936625;29;20422;-76
2024/02/06 14:39:41;;;;;;;7.83;2.77;;;;;;;;;;4937697;29;20425;-76
2024/02/06 14:42:08;;;;;;;8.90;2.83;;;;;;;;;;4937037;29;20493;-75
2024/02/06 14:44:34;;;;;;;7.07;2.10;;;;;;;;;;4936752;29;20874;-75
2024/02/06 14:47:01;;;;;;;5.20;2.40;;;;;;;;;;4937034;29;20878;-76
2024/02/06 14:49:27;;;;;;;4.93;2.07;;;;;;;;;;4940064;29;20420;-76
2024/02/06 14:51:55;;;;;;;6.53;1.90;;;;;;;;;;4942812;29;20424;-77
2024/02/06 14:54:22;;;;;;;6.60;2.67;;;;;;;;;;4941830;29;20445;-76
2024/02/06 14:56:50;;;;;;;8.20;2.60;;;;;;;;;;4937143;29;20429;-76
2024/02/06 14:59:17;;;;;;;10.50;2.73;;;;;;;;;;4936857;29;20426;-75
2024/02/06 15:01:43;;;;;;;10.87;2.80;;;;;;;;;;4936182;29;20497;-76
2024/02/06 15:04:10;;;;;;;9.07;2.50;;;;;;;;;;4937674;29;20474;-76
2024/02/06 15:06:37;;;;;;;12.40;3.17;;;;;;;;;;4938288;29;20414;-76
2024/02/06 15:09:06;;;;;;;10.23;2.17;;;;;;;;;;4938164;29;20428;-75
2024/02/06 15:11:32;;;;;;;6.67;2.77;;;;;;;;;;4936942;29;20421;-74
2024/02/06 15:13:58;;;;;;;5.73;2.63;;;;;;;;;;4935318;29;20456;-75
2024/02/06 15:16:25;;;;;;;9.70;3.57;;;;;;;;;;4936912;29;20426;-77
2024/02/06 15:18:51;;;;;;;6.00;3.27;;;;;;;;;;4937893;29;20509;-74
2024/02/06 15:21:18;;;;;;;5.10;2.30;;;;;;;;;;4938041;29;20481;-76
2024/02/06 15:23:45;;;;;;;6.83;2.23;;;;;;;;;;4953189;29;20460;-75
2024/02/06 15:26:11;;;;;;;5.67;2.13;;;;;;;;;;4942667;29;20410;-75
2024/02/06 15:28:37;;;;;;;3.30;2.00;;;;;;;;;;4936029;29;20426;-77
2024/02/06 15:31:03;;;;;;;5.20;2.43;;;;;;;;;;4935047;29;20512;-75
2024/02/06 15:33:29;;;;;;;11.37;2.43;;;;;;;;;;4937048;29;20456;-76
2024/02/06 15:35:55;;;;;;;6.80;2.73;;;;;;;;;;4940049;29;20496;-75
2024/02/06 15:38:21;;;;;;;3.13;2.07;;;;;;;;;;4951180;29;20421;-75
2024/02/06 15:40:47;;;;;;;6.93;2.77;;;;;;;;;;4954901;29;20583;-74
2024/02/06 15:43:13;;;;;;;6.00;2.03;;;;;;;;;;4958695;29;20477;-77
2024/02/06 15:45:39;;;;;;;3.00;2.00;;;;;;;;;;4959658;28;20406;-76
2024/02/06 15:48:05;;;;;;;6.60;2.50;;;;;;;;;;4958985;28;20433;-76
2024/02/06 15:50:32;;;;;;;4.60;2.20;;;;;;;;;;4942912;29;20390;-76
2024/02/06 15:52:58;;;;;;;3.60;2.10;;;;;;;;;;4950067;29;20420;-76
2024/02/06 15:55:24;;;;;;;4.40;2.40;;;;;;;;;;4935313;29;20525;-77
2024/02/06 15:57:51;;;;;;;8.47;2.50;;;;;;;;;;4936913;29;20422;-75
2024/02/06 16:00:17;;;;;;;5.87;1.80;;;;;;;;;;4938875;29;20584;-76
2024/02/06 16:02:43;;;;;;;5.27;2.77;;;;;;;;;;4941329;29;20914;-76
2024/02/06 16:05:09;;;;;;;8.37;2.80;;;;;;;;;;4941622;29;20469;-76
2024/02/06 16:07:35;;;;;;;5.27;2.90;;;;;;;;;;4936931;29;20426;-72
2024/02/06 16:10:03;;;;;;;5.00;2.03;;;;;;;;;;4940180;29;20433;-76
2024/02/06 16:12:30;;;;;;;4.27;2.40;;;;;;;;;;4940764;29;20813;-76
2024/02/06 16:14:56;;;;;;;8.47;2.93;;;;;;;;;;4939416;29;20900;-75
2024/02/06 16:17:22;;;;;;;3.57;2.17;;;;;;;;;;4938381;29;20425;-76
2024/02/06 16:19:48;;;;;;;12.70;3.33;;;;;;;;;;4942752;29;20427;-76
2024/02/06 16:22:14;;;;;;;17.07;2.87;;;;;;;;;;4950059;29;20549;-76
2024/02/06 16:24:40;;;;;;;2.67;2.17;;;;;;;;;;4941219;29;20869;-75
2024/02/06 16:27:07;;;;;;;4.90;2.27;;;;;;;;;;4939771;29;20418;-76
2024/02/06 16:29:33;;;;;;;12.70;3.37;;;;;;;;;;4940318;29;20458;-74
2024/02/06 16:31:59;;;;;;;3.90;2.40;;;;;;;;;;4955568;29;20432;-74
2024/02/06 16:34:25;;;;;;;6.00;2.63;;;;;;;;;;4955527;29;20528;-74
2024/02/06 16:36:50;;;;;;;7.60;2.30;;;;;;;;;;4954779;29;20429;-77
2024/02/06 16:39:16;;;;;;;3.53;2.30;;;;;;;;;;4960146;28;20468;-76
2024/02/06 16:41:42;;;;;;;9.20;3.77;;;;;;;;;;4963627;28;20500;-75
2024/02/06 16:44:08;;;;;;;3.93;2.37;;;;;;;;;;4973599;29;20438;-73
2024/02/06 16:46:35;;;;;;;5.50;2.67;;;;;;;;;;4961510;29;20426;-75
2024/02/06 16:49:01;;;;;;;7.60;3.33;;;;;;;;;;4959113;28;20421;-76
2024/02/06 16:51:28;;;;;;;10.27;4.60;;;;;;;;;;4956476;29;20454;-76
2024/02/06 16:53:54;;;;;;;8.23;3.17;;;;;;;;;;4956952;29;20464;-76
2024/02/06 16:56:20;;;;;;;7.27;3.60;;;;;;;;;;4956810;29;20428;-76
2024/02/06 16:58:46;;;;;;;8.63;3.33;;;;;;;;;;4948140;29;20422;-77
2024/02/06 17:01:14;;;;;;;9.17;4.73;;;;;;;;;;4943988;29;20464;-77
2024/02/06 17:03:40;;;;;;;14.80;4.70;;;;;;;;;;4944253;29;20524;-77
2024/02/06 17:06:06;;;;;;;11.50;3.80;;;;;;;;;;4944062;29;20877;-77
2024/02/06 17:08:32;;;;;;;4.00;2.63;;;;;;;;;;4943274;29;20413;-77
2024/02/06 17:10:58;;;;;;;6.37;2.77;;;;;;;;;;4943367;29;20421;-78
2024/02/06 17:13:24;;;;;;;7.00;3.50;;;;;;;;;;4943487;29;20509;-77
2024/02/06 17:15:50;;;;;;;9.33;3.10;;;;;;;;;;4942616;29;20464;-77
2024/02/06 17:18:17;;;;;;;10.73;4.00;;;;;;;;;;4945136;29;20421;-77
2024/02/06 17:20:43;;;;;;;7.10;3.50;;;;;;;;;;4943926;28;20581;-77
2024/02/06 17:23:10;;;;;;;8.00;3.70;;;;;;;;;;4942011;29;20417;-78
2024/02/06 17:25:36;;;;;;;7.93;3.87;;;;;;;;;;4941246;29;20485;-77
2024/02/06 17:28:02;;;;;;;6.80;3.20;;;;;;;;;;4940963;29;20421;-75
2024/02/06 17:30:28;;;;;;;8.00;3.47;;;;;;;;;;4940504;29;20425;-76
2024/02/06 17:32:54;;;;;;;6.47;3.53;;;;;;;;;;4940294;29;20414;-77
2024/02/06 17:35:20;;;;;;;4.30;2.90;;;;;;;;;;4938118;29;20947;-76
2024/02/06 17:37:46;;;;;;;6.97;2.80;;;;;;;;;;4939194;29;20416;-76
2024/02/06 17:40:12;;;;;;;6.20;2.70;;;;;;;;;;4939262;29;20464;-75
2024/02/06 17:42:38;;;;;;;12.50;3.37;;;;;;;;;;4938873;29;20858;-75
2024/02/06 17:45:04;;;;;;;8.93;3.20;;;;;;;;;;4938717;29;20434;-75
2024/02/06 17:47:30;;;;;;;6.73;3.40;;;;;;;;;;4951054;29;20425;-75
2024/02/06 17:49:56;;;;;;;7.47;3.70;;;;;;;;;;4954328;29;20782;-75
2024/02/06 17:52:22;;;;;;;6.73;3.23;;;;;;;;;;4949292;29;20414;-75
2024/02/06 17:54:48;;;;;;;7.30;3.33;;;;;;;;;;4942419;29;20429;-76
2024/02/06 17:57:15;;;;;;;7.07;2.90;;;;;;;;;;4957616;29;20416;-74
2024/02/06 17:59:43;;;;;;;6.33;3.23;;;;;;;;;;4962929;29;20417;-74
2024/02/06 18:02:09;;;;;;;10.97;4.10;;;;;;;;;;4963434;29;20419;-75
2024/02/06 18:04:35;;;;;;;7.47;3.20;;;;;;;;;;4957030;29;20432;-74
2024/02/06 18:07:01;;;;;;;8.93;3.40;;;;;;;;;;4956762;29;20894;-74
2024/02/06 18:09:27;;;;;;;10.47;3.43;;;;;;;;;;4959442;29;20423;-74
2024/02/06 18:11:54;;;;;;;5.47;3.17;;;;;;;;;;4957543;29;20424;-73
2024/02/06 18:14:20;;;;;;;9.90;3.73;;;;;;;;;;4956671;28;20441;-75
2024/02/06 18:17:06;;;;;;;6.80;3.00;;;;;;;;;;4957629;29;20496;-74
2024/02/06 18:19:32;;;;;;;5.17;3.10;;;;;;;;;;4957152;28;20408;-74
2024/02/06 18:21:58;;;;;;;4.43;2.97;;;;;;;;;;4954580;29;20479;-74
2024/02/06 18:24:24;;;;;;;4.90;2.80;;;;;;;;;;4938908;29;20828;-74
2024/02/06 18:26:51;;;;;;;7.20;3.90;;;;;;;;;;4937439;29;20429;-74
2024/02/06 18:29:17;;;;;;;15.37;4.50;;;;;;;;;;4942015;29;20792;-74
2024/02/06 18:31:42;;;;;;;8.33;3.13;;;;;;;;;;4938154;29;20505;-74
2024/02/06 18:34:08;;;;;;;11.03;3.33;;;;;;;;;;4937737;29;20438;-73
2024/02/06 18:36:34;;;;;;;9.53;3.90;;;;;;;;;;4938892;29;20410;-73
2024/02/06 18:39:00;;;;;;;7.10;3.50;;;;;;;;;;4938697;29;20477;-77
2024/02/06 18:41:26;;;;;;;11.10;4.03;;;;;;;;;;4950324;29;20480;-77
2024/02/06 18:43:52;;;;;;;7.17;3.30;;;;;;;;;;4945286;29;20966;-77
2024/02/06 18:46:18;;;;;;;5.30;2.67;;;;;;;;;;4958384;29;20421;-79
2024/02/06 18:48:44;;;;;;;8.63;3.73;;;;;;;;;;4951673;29;20420;-78
2024/02/06 18:51:20;;;;;;;12.17;3.77;;;;;;;;;;4940112;29;20816;-77
2024/02/06 18:53:46;;;;;;;7.37;3.70;;;;;;;;;;4938882;29;20925;-76
2024/02/06 18:56:12;;;;;;;5.60;3.20;;;;;;;;;;4938289;29;20420;-76
2024/02/06 18:58:38;;;;;;;8.73;3.40;;;;;;;;;;4938061;29;20416;-79
2024/02/06 19:01:04;;;;;;;6.87;3.33;;;;;;;;;;4949108;29;20559;-77
2024/02/06 19:03:30;;;;;;;11.43;3.30;;;;;;;;;;4955060;29;20437;-76
2024/02/06 19:05:59;;;;;;;10.80;4.27;;;;;;;;;;4953712;29;20418;-76
2024/02/06 19:08:25;;;;;;;7.50;3.57;;;;;;;;;;4938847;29;20773;-76
2024/02/06 19:10:50;;;;;;;6.73;2.83;;;;;;;;;;4950921;29;20425;-76
2024/02/06 19:13:16;;;;;;;10.33;3.73;;;;;;;;;;4956924;29;20760;-77
2024/02/06 19:15:42;;;;;;;6.03;2.90;;;;;;;;;;4962032;29;20496;-76
2024/02/06 19:18:10;;;;;;;9.17;4.70;;;;;;;;;;4974206;29;20417;-75
2024/02/06 19:20:38;;;;;;;6.77;3.77;;;;;;;;;;4973211;28;20483;-75
2024/02/06 19:23:04;;;;;;;7.07;3.30;;;;;;;;;;4962480;29;20453;-75
2024/02/06 19:25:30;;;;;;;8.00;3.40;;;;;;;;;;4956872;29;20492;-77
2024/02/06 19:27:56;;;;;;;8.90;3.73;;;;;;;;;;4957972;29;20413;-76
2024/02/06 19:30:23;;;;;;;8.83;3.70;;;;;;;;;;4951149;29;20581;-77
2024/02/06 19:32:49;;;;;;;8.13;3.87;;;;;;;;;;4938531;29;20461;-78
2024/02/06 19:35:15;;;;;;;6.10;3.50;;;;;;;;;;4938658;29;20446;-77
2024/02/06 19:37:41;;;;;;;8.90;3.60;;;;;;;;;;4931544;29;20438;-77
2024/02/06 19:40:11;;;;;;;6.33;3.07;;;;;;;;;;4937416;29;20469;-78
2024/02/06 19:42:37;;;;;;;7.93;3.27;;;;;;;;;;4930262;29;20469;-77
2024/02/06 19:45:05;;;;;;;7.43;3.63;;;;;;;;;;4930788;29;20469;-77
2024/02/06 19:47:30;;;;;;;7.60;4.57;;;;;;;;;;4937851;29;20418;-77
2024/02/06 19:49:57;;;;;;;12.50;5.50;;;;;;;;;;4931492;29;20485;-75
2024/02/06 19:52:24;;;;;;;11.07;5.13;;;;;;;;;;4926573;29;20427;-76
2024/02/06 19:54:51;;;;;;;13.10;6.00;;;;;;;;;;4937315;29;20441;-77
2024/02/06 19:57:17;;;;;;;8.07;4.13;;;;;;;;;;4938546;29;20928;-77
2024/02/06 19:59:43;;;;;;;5.10;3.70;;;;;;;;;;4936414;29;20425;-78
2024/02/06 20:02:09;;;;;;;4.50;3.40;;;;;;;;;;4929541;29;20442;-78
2024/02/06 20:04:35;;;;;;;8.20;3.90;;;;;;;;;;4942188;29;20452;-77
2024/02/06 20:07:03;;;;;;;6.70;3.87;;;;;;;;;;4930799;29;20997;-76
2024/02/06 20:09:29;;;;;;;8.87;4.20;;;;;;;;;;4939342;29;20413;-77
2024/02/06 20:11:55;;;;;;;7.90;3.97;;;;;;;;;;4941871;29;20445;-77
2024/02/06 20:14:22;;;;;;;6.20;3.03;;;;;;;;;;4951544;29;20444;-75
2024/02/06 20:16:50;;;;;;;8.00;3.80;;;;;;;;;;4945054;29;20445;-77
2024/02/06 20:19:16;;;;;;;9.40;3.73;;;;;;;;;;4947334;29;20436;-77
2024/02/06 20:21:43;;;;;;;6.33;3.33;;;;;;;;;;4929891;29;20469;-78
2024/02/06 20:24:09;;;;;;;10.13;3.87;;;;;;;;;;4936666;29;20549;-77
2024/02/06 20:26:35;;;;;;;6.30;3.80;;;;;;;;;;4936555;29;20423;-76
2024/02/06 20:29:01;;;;;;;7.13;3.70;;;;;;;;;;4936915;29;20828;-77
2024/02/06 20:31:27;;;;;;;8.50;3.53;;;;;;;;;;4933621;29;20517;-80
2024/02/06 20:33:54;;;;;;;7.50;4.37;;;;;;;;;;4935172;29;20592;-76
2024/02/06 20:36:20;;;;;;;8.07;4.10;;;;;;;;;;4938826;29;20425;-78